Time;durP1;ratioP1;P1;durP2;ratioP2;P2;SDS_P1;SDS_P2;PMS_P1;PMS_P2;Temp;Humidity;BMP_temperature;BMP_pressure;BME280_temperature;BME280_humidity;BME280_pressure;Samples;Min_cycle;Max_cycle;Signal;HPM_P1;HPM_P2
2023/10/12 00:01:24;;;;;;;5.00;2.55;;;;;;;12.94;72.09;99785.03;4991304;28;20038;-49
2023/10/12 00:03:58;;;;;;;4.07;2.30;;;;;;;12.93;72.89;99802.34;4986622;28;20096;-48
2023/10/12 00:06:30;;;;;;;2.47;2.28;;;;;;;12.93;71.98;99801.47;5006265;28;20116;-46
2023/10/12 00:08:57;;;;;;;5.03;2.17;;;;;;;12.92;72.73;99807.56;5000680;28;20125;-48
2023/10/12 00:11:36;;;;;;;4.20;2.22;;;;;;;12.92;72.03;99820.56;5005018;28;20048;-46
2023/10/12 00:14:04;;;;;;;5.85;2.22;;;;;;;12.93;72.15;99830.06;5007584;28;20494;-48
2023/10/12 00:16:31;;;;;;;4.05;2.45;;;;;;;12.93;71.87;99833.53;5007049;28;20049;-47
2023/10/12 00:18:58;;;;;;;6.50;2.20;;;;;;;12.95;72.12;99825.72;5004161;28;20053;-46
2023/10/12 00:21:26;;;;;;;3.33;2.20;;;;;;;12.94;72.42;99824.00;5004277;28;20105;-48
2023/10/12 00:23:54;;;;;;;6.78;3.35;;;;;;;12.94;72.82;99824.84;5008135;28;20089;-49
2023/10/12 00:26:22;;;;;;;3.35;2.35;;;;;;;12.93;72.84;99830.94;5006447;28;20045;-48
2023/10/12 00:28:51;;;;;;;7.38;2.17;;;;;;;12.92;72.33;99828.34;5005886;28;20057;-50
2023/10/12 00:31:19;;;;;;;4.25;2.58;;;;;;;12.93;72.42;99830.06;5002966;28;20053;-51
2023/10/12 00:33:48;;;;;;;6.15;2.53;;;;;;;12.92;72.77;99816.22;5008222;28;20064;-49
2023/10/12 00:36:24;;;;;;;2.95;2.70;;;;;;;12.93;71.66;99806.69;5006057;28;20518;-52
2023/10/12 00:38:52;;;;;;;6.20;2.25;;;;;;;12.91;71.82;99813.66;5003042;28;20048;-49
2023/10/12 00:41:19;;;;;;;3.78;2.22;;;;;;;12.92;71.55;99815.38;5007188;28;20076;-51
2023/10/12 00:44:12;;;;;;;2.90;2.70;;;;;;;12.88;72.49;99819.78;5006252;28;20053;-47
2023/10/12 00:46:41;;;;;;;5.18;2.33;;;;;;;12.90;71.76;99817.97;5005401;28;20073;-46
2023/10/12 00:49:27;;;;;;;6.78;2.38;;;;;;;12.90;72.16;99811.94;5001974;28;20050;-47
2023/10/12 00:52:22;;;;;;;2.83;2.03;;;;;;;12.90;72.58;99817.16;4986094;28;20073;-51
2023/10/12 00:54:49;;;;;;;5.70;1.20;;;;;;;12.89;72.00;99825.81;5019598;28;20522;-48
2023/10/12 00:57:16;;;;;;;5.50;1.85;;;;;;;12.90;72.38;99827.53;4987589;28;20058;-49
2023/10/12 00:59:43;;;;;;;3.05;2.35;;;;;;;12.90;72.51;99827.53;4982836;28;20057;-45
2023/10/12 01:02:12;;;;;;;4.07;2.13;;;;;;;12.91;72.90;99829.25;4986238;28;20053;-47
2023/10/12 01:04:41;;;;;;;5.63;2.25;;;;;;;12.91;72.23;99829.25;4986490;28;20419;-46
2023/10/12 01:07:11;;;;;;;3.20;0.95;;;;;;;12.93;72.25;99832.66;4986487;28;20579;-49
2023/10/12 01:09:45;;;;;;;3.67;2.08;;;;;;;12.93;71.62;99822.28;4985218;28;20048;-50
2023/10/12 01:12:13;;;;;;;2.72;2.03;;;;;;;12.92;71.57;99821.44;4984988;28;20050;-52
2023/10/12 01:14:48;;;;;;;5.38;2.50;;;;;;;12.92;72.01;99807.56;4986534;28;20684;-47
2023/10/12 01:17:17;;;;;;;4.43;1.92;;;;;;;12.88;72.42;99808.50;4985309;28;20176;-51
2023/10/12 01:19:45;;;;;;;3.92;2.03;;;;;;;12.84;71.77;99807.72;5006426;28;20061;-49
2023/10/12 01:22:14;;;;;;;3.55;2.63;;;;;;;12.83;72.08;99812.03;4986186;28;20065;-53
2023/10/12 01:24:58;;;;;;;5.15;2.20;;;;;;;12.84;71.99;99811.13;5018569;28;20058;-48
2023/10/12 01:27:26;;;;;;;3.78;2.35;;;;;;;12.80;72.39;99806.88;5027363;28;20073;-47
2023/10/12 01:29:59;;;;;;;3.83;2.50;;;;;;;12.82;71.88;99802.53;5003493;28;20129;-49
2023/10/12 01:32:27;;;;;;;2.47;2.25;;;;;;;12.79;72.28;99810.38;5000985;28;20511;-52
2023/10/12 01:34:56;;;;;;;3.72;2.78;;;;;;;12.79;72.47;99809.50;5004718;28;20046;-50
2023/10/12 01:37:26;;;;;;;10.38;2.42;;;;;;;12.76;71.47;99815.59;5007115;28;20058;-46
2023/10/12 01:48:16;;;;;;;2.85;0.90;;;;;;;12.77;72.01;99821.69;5062375;27;20408;-49
2023/10/12 01:50:44;;;;;;;11.98;1.10;;;;;;;12.76;71.77;99814.78;5032381;28;20049;-48
2023/10/12 01:55:58;;;;;;;4.68;1.02;;;;;;;12.78;71.76;99828.59;5045984;27;20384;-49
2023/10/12 01:58:28;;;;;;;3.90;1.27;;;;;;;12.77;72.04;99826.88;4995418;28;20103;-47
2023/10/12 02:01:04;;;;;;;4.40;1.48;;;;;;;12.73;71.60;99828.63;5019405;28;20498;-48
2023/10/12 02:03:32;;;;;;;5.25;0.82;;;;;;;12.72;71.95;99839.94;4973235;28;20050;-49
2023/10/12 02:05:59;;;;;;;4.20;1.15;;;;;;;12.72;71.96;99845.13;4989143;28;20051;-50
2023/10/12 02:11:36;;;;;;;4.43;2.55;;;;;;;12.73;73.07;99839.03;5040242;27;20395;-49
2023/10/12 02:14:03;;;;;;;5.97;2.30;;;;;;;12.73;72.61;99831.25;5003085;28;20053;-49
2023/10/12 02:16:31;;;;;;;4.05;1.42;;;;;;;12.73;72.14;99846.84;5003278;28;20041;-50
2023/10/12 02:19:00;;;;;;;8.50;2.05;;;;;;;12.71;72.05;99843.41;5001798;28;20042;-46
2023/10/12 02:21:27;;;;;;;2.78;2.05;;;;;;;12.71;71.81;99843.41;4999636;28;20073;-49
2023/10/12 02:23:57;;;;;;;5.90;2.38;;;;;;;12.71;72.58;99839.06;5000366;28;20065;-47
2023/10/12 02:29:19;;;;;;;3.97;2.95;;;;;;;12.71;72.37;99833.84;4984002;28;20046;-47
2023/10/12 02:34:26;;;;;;;4.70;1.17;;;;;;;12.74;72.70;99838.19;5051441;28;20401;-51
2023/10/12 02:39:46;;;;;;;6.40;1.10;;;;;;;12.73;72.60;99846.84;5042878;28;20610;-49
2023/10/12 02:47:30;;;;;;;3.42;1.17;;;;;;;12.69;72.94;99837.38;5098464;27;20410;-51
2023/10/12 02:50:20;;;;;;;3.28;1.23;;;;;;;12.69;71.59;99838.25;5081621;28;20143;-50
2023/10/12 02:52:46;;;;;;;3.00;0.77;;;;;;;12.65;71.97;99843.50;5057641;28;20049;-46
2023/10/12 02:57:59;;;;;;;6.95;1.38;;;;;;;12.62;72.29;99833.13;5018357;28;20417;-53
2023/10/12 03:00:36;;;;;;;3.42;0.88;;;;;;;12.61;71.79;99834.91;5002678;28;20046;-48
2023/10/12 03:05:52;;;;;;;5.88;1.48;;;;;;;12.52;72.12;99833.28;4988636;28;20046;-46
2023/10/12 03:08:20;;;;;;;2.80;1.13;;;;;;;12.49;72.49;99822.09;5003007;28;20057;-47
2023/10/12 03:11:11;;;;;;;5.07;1.65;;;;;;;12.48;72.90;99834.22;5001740;28;20069;-50
2023/10/12 03:13:41;;;;;;;3.78;1.35;;;;;;;12.47;72.52;99835.09;4996974;28;20053;-49
2023/10/12 03:16:13;;;;;;;6.25;1.48;;;;;;;12.46;72.44;99823.84;5003364;28;20479;-50
2023/10/12 03:18:42;;;;;;;7.50;1.23;;;;;;;12.47;71.87;99814.31;4998858;28;20248;-50
2023/10/12 03:21:12;;;;;;;8.20;1.60;;;;;;;12.45;72.08;99816.06;5002812;28;20068;-49
2023/10/12 03:23:40;;;;;;;;;;;;;;;12.28;72.31;99817.16;5000677;28;20253;-49
2023/10/12 03:37:14;;;;;;;2.85;0.88;;;;;;;12.29;71.95;99805.88;5004006;28;20496;-50
2023/10/12 03:45:08;;;;;;;5.40;2.00;;;;;;;12.25;72.25;99813.72;5047305;27;20404;-51
2023/10/12 03:47:55;;;;;;;8.10;2.20;;;;;;;12.23;73.14;99821.56;5030673;28;20069;-50
2023/10/12 03:50:21;;;;;;;5.10;1.80;;;;;;;12.20;72.27;99816.41;5036990;28;20056;-47
2023/10/12 03:52:59;;;;;;;6.50;2.25;;;;;;;12.20;71.99;99824.19;5037216;28;20493;-48
2023/10/12 03:55:28;;;;;;;4.28;2.95;;;;;;;12.20;71.95;99817.25;5031931;28;20520;-47
2023/10/12 03:58:00;;;;;;;3.58;2.17;;;;;;;12.21;72.24;99826.78;5037000;28;20049;-47
2023/10/12 04:00:34;;;;;;;5.40;2.20;;;;;;;12.20;72.50;99827.63;5029533;28;20057;-48
2023/10/12 04:03:10;;;;;;;5.57;2.75;;;;;;;12.20;72.27;99827.63;5034299;28;20046;-47
2023/10/12 04:13:56;;;;;;;4.40;1.58;;;;;;;12.10;72.19;99820.00;5062742;27;20390;-50
2023/10/12 04:21:39;;;;;;;6.43;1.95;;;;;;;12.08;72.87;99820.00;5015081;27;20429;-48
2023/10/12 04:29:39;;;;;;;3.78;1.25;;;;;;;11.99;72.84;99810.56;5052036;28;20060;-47
2023/10/12 04:32:27;;;;;;;4.03;1.30;;;;;;;11.98;72.11;99806.25;5060541;28;20516;-48
2023/10/12 04:34:52;;;;;;;5.30;1.15;;;;;;;11.96;73.37;99808.88;5040806;28;20056;-48
2023/10/12 04:37:25;;;;;;;4.47;1.85;;;;;;;11.97;72.55;99809.75;5049760;28;20051;-48
2023/10/12 04:39:56;;;;;;;9.50;2.22;;;;;;;11.97;72.77;99809.75;5047577;28;20064;-47
2023/10/12 04:42:27;;;;;;;2.90;1.48;;;;;;;11.97;73.01;99809.75;5062459;28;20052;-48
2023/10/12 04:47:45;;;;;;;5.90;1.73;;;;;;;11.96;72.48;99808.03;5037489;28;20060;-48
2023/10/12 04:50:27;;;;;;;7.90;1.63;;;;;;;11.94;73.34;99813.25;5058127;28;20049;-47
2023/10/12 04:53:11;;;;;;;3.25;1.00;;;;;;;11.95;72.80;99816.69;5052940;28;20122;-47
2023/10/12 04:55:41;;;;;;;4.32;1.33;;;;;;;11.95;73.10;99827.94;5056304;28;20098;-47
2023/10/12 05:00:55;;;;;;;8.35;1.48;;;;;;;11.94;72.20;99833.13;5066313;28;20060;-48
2023/10/12 05:03:24;;;;;;;4.68;1.60;;;;;;;11.95;73.40;99821.88;5074633;28;20085;-50
2023/10/12 05:05:55;;;;;;;8.82;1.30;;;;;;;11.93;72.28;99808.06;5077755;28;20052;-47
2023/10/12 05:08:22;;;;;;;7.18;1.90;;;;;;;11.91;72.00;99796.84;5058763;28;20131;-48
2023/10/12 05:10:48;;;;;;;6.40;2.33;;;;;;;11.90;73.10;99808.09;5076268;28;20060;-53
2023/10/12 05:13:23;;;;;;;5.70;1.58;;;;;;;11.87;72.38;99802.94;5079737;28;20048;-50
2023/10/12 05:16:14;;;;;;;4.72;1.10;;;;;;;11.86;73.02;99802.09;5073540;28;20123;-49
2023/10/12 05:18:38;;;;;;;5.78;2.20;;;;;;;11.85;72.70;99809.91;5079126;28;20216;-51
2023/10/12 05:21:08;;;;;;;5.65;1.45;;;;;;;11.86;73.28;99811.59;5068134;28;20096;-52
2023/10/12 05:23:36;;;;;;;3.75;1.15;;;;;;;11.83;73.51;99802.97;5077300;28;20497;-51
2023/10/12 05:28:47;;;;;;;5.85;1.33;;;;;;;11.86;73.08;99816.81;5049128;27;20370;-49
2023/10/12 05:31:15;;;;;;;6.93;1.70;;;;;;;11.87;72.67;99813.31;5013844;28;20291;-50
2023/10/12 05:33:43;;;;;;;6.18;1.33;;;;;;;11.88;72.34;99815.03;5017410;28;20085;-49
2023/10/12 05:36:13;;;;;;;8.25;1.30;;;;;;;11.89;72.51;99819.38;5018058;28;20049;-48
2023/10/12 05:41:34;;;;;;;5.75;1.33;;;;;;;11.90;73.24;99818.47;5056875;27;20410;-48
2023/10/12 05:44:03;;;;;;;4.40;1.52;;;;;;;11.87;73.18;99821.09;5016904;28;20069;-51
2023/10/12 05:46:33;;;;;;;8.18;1.67;;;;;;;11.87;72.64;99818.50;5047589;28;20080;-51
2023/10/12 05:49:02;;;;;;;4.47;1.55;;;;;;;11.80;72.88;99823.78;5015508;28;20060;-45
2023/10/12 05:51:29;;;;;;;8.40;1.95;;;;;;;11.81;72.61;99819.44;5033666;28;20263;-46
2023/10/12 05:54:01;;;;;;;10.32;1.60;;;;;;;11.81;73.30;99812.53;5023394;28;21000;-47
2023/10/12 05:56:30;;;;;;;6.68;2.60;;;;;;;11.83;73.80;99828.91;5017673;28;20045;-47
2023/10/12 05:58:57;;;;;;;5.28;1.60;;;;;;;11.81;73.90;99830.69;5016918;28;20516;-48
2023/10/12 06:01:39;;;;;;;5.32;2.47;;;;;;;11.81;73.70;99846.25;5016706;28;20451;-52
2023/10/12 06:04:07;;;;;;;3.63;1.15;;;;;;;11.79;72.64;99841.97;5016594;28;20050;-49
2023/10/12 06:06:40;;;;;;;5.28;1.50;;;;;;;11.75;73.14;99841.13;5016856;28;20096;-48
2023/10/12 06:09:14;;;;;;;3.25;1.20;;;;;;;11.75;73.61;99833.34;5020829;28;20053;-61
2023/10/12 06:11:44;;;;;;;6.28;1.58;;;;;;;11.74;72.79;99841.13;5021525;28;20441;-54
2023/10/12 06:14:14;;;;;;;5.40;1.05;;;;;;;11.72;72.69;99846.34;5022265;28;20049;-49
2023/10/12 06:16:42;;;;;;;7.40;1.90;;;;;;;11.70;72.89;99848.09;5033659;28;20049;-58
2023/10/12 06:19:23;;;;;;;7.10;1.30;;;;;;;11.67;73.07;99854.19;5015910;28;20072;-49
2023/10/12 06:21:51;;;;;;;3.97;1.23;;;;;;;11.63;72.71;99859.41;5015625;28;20054;-48
2023/10/12 06:24:21;;;;;;;2.28;0.75;;;;;;;11.62;72.96;99855.13;5021873;28;20057;-51
2023/10/12 06:26:48;;;;;;;;;;;;;;;11.46;73.04;99850.09;5011929;28;20056;-47
2023/10/12 06:29:25;;;;;;;3.75;0.93;;;;;;;11.52;72.51;99855.19;5012590;28;20409;-51
2023/10/12 06:31:54;;;;;;;6.55;2.03;;;;;;;11.54;71.96;99858.63;5016302;28;20577;-53
2023/10/12 06:34:23;;;;;;;3.90;1.42;;;;;;;11.52;71.66;99862.13;5015960;28;20077;-48
2023/10/12 06:36:58;;;;;;;2.05;0.93;;;;;;;11.50;72.13;99850.91;5011643;28;20056;-50
2023/10/12 06:42:09;;;;;;;4.68;2.03;;;;;;;11.46;72.66;99847.47;5019347;28;20923;-48
2023/10/12 06:44:36;;;;;;;5.35;1.38;;;;;;;11.46;72.22;99855.25;4985580;28;20467;-48
2023/10/12 06:47:28;;;;;;;4.20;1.98;;;;;;;11.47;72.59;99856.09;5000889;28;20047;-50
2023/10/12 06:49:51;;;;;;;4.18;2.10;;;;;;;11.45;71.19;99863.91;4978344;28;20714;-48
2023/10/12 06:52:19;;;;;;;8.27;2.50;;;;;;;11.43;71.57;99860.47;4972293;28;20054;-45
2023/10/12 06:55:08;;;;;;;7.20;1.08;;;;;;;11.41;72.38;99857.03;4976409;28;20599;-50
2023/10/12 06:57:36;;;;;;;5.28;2.42;;;;;;;11.38;72.36;99859.66;4987183;28;20045;-47
2023/10/12 07:02:45;;;;;;;10.60;0.90;;;;;;;11.39;72.12;99853.59;5028003;28;20845;-49
2023/10/12 07:05:19;;;;;;;4.18;0.75;;;;;;;11.39;71.36;99858.78;4996882;28;20575;-47
2023/10/12 07:07:51;;;;;;;2.83;0.63;;;;;;;11.39;71.31;99864.81;4999434;28;20108;-50
2023/10/12 07:10:28;;;;;;;6.90;1.98;;;;;;;11.42;71.16;99859.59;4999958;28;20053;-47
2023/10/12 07:13:00;;;;;;;3.00;0.65;;;;;;;11.43;71.06;99855.28;4995555;28;20444;-48
2023/10/12 07:15:32;;;;;;;7.40;0.88;;;;;;;11.43;71.60;99853.56;5000017;28;20050;-48
2023/10/12 07:18:06;;;;;;;5.22;1.10;;;;;;;11.42;72.00;99850.97;4999953;28;20072;-48
2023/10/12 07:25:59;;;;;;;6.05;1.30;;;;;;;11.36;71.63;99864.00;5016931;28;20053;-53
2023/10/12 07:28:32;;;;;;;3.85;1.58;;;;;;;11.38;70.72;99854.47;4992170;28;20060;-53
2023/10/12 07:31:18;;;;;;;7.05;1.10;;;;;;;11.38;70.75;99841.53;4983770;28;20125;-50
2023/10/12 07:34:01;;;;;;;3.40;1.45;;;;;;;11.41;71.59;99851.84;5007591;28;20085;-51
2023/10/12 07:36:46;;;;;;;7.75;0.90;;;;;;;11.43;70.31;99855.28;5008552;28;20092;-49
2023/10/12 07:39:22;;;;;;;6.40;1.42;;;;;;;11.46;70.37;99863.03;5003908;28;20140;-50
2023/10/12 07:42:01;;;;;;;5.35;1.05;;;;;;;11.50;71.27;99871.66;5002958;28;20131;-49
2023/10/12 07:44:38;;;;;;;4.20;1.33;;;;;;;11.54;71.24;99884.59;5012660;28;20042;-51
2023/10/12 07:47:14;;;;;;;4.25;1.00;;;;;;;11.60;71.33;99882.78;5012487;28;20140;-48
2023/10/12 07:49:48;;;;;;;2.95;0.70;;;;;;;11.65;70.64;99886.22;5008398;28;20156;-48
2023/10/12 07:54:57;;;;;;;7.65;2.90;;;;;;;11.70;70.45;99900.88;5081088;27;20397;-47
2023/10/12 07:57:29;;;;;;;8.32;2.05;;;;;;;11.70;71.07;99895.69;5034201;27;20136;-47
2023/10/12 08:05:43;;;;;;;7.07;1.88;;;;;;;12.08;68.29;99901.38;5051629;27;20420;-47
2023/10/12 08:08:17;;;;;;;6.55;2.30;;;;;;;11.84;70.18;99907.63;5001173;28;20545;-47
2023/10/12 08:15:58;;;;;;;3.80;1.10;;;;;;;11.71;70.40;99909.50;5078183;27;20398;-47
2023/10/12 08:21:10;;;;;;;4.95;1.02;;;;;;;11.73;70.66;99920.72;5030391;27;20407;-47
2023/10/12 08:23:37;;;;;;;1.58;0.98;;;;;;;11.73;70.16;99912.94;5021960;28;20049;-50
2023/10/12 08:26:09;;;;;;;1.27;0.55;;;;;;;11.75;70.83;99918.13;5021489;28;20082;-46
2023/10/12 08:28:44;;;;;;;2.65;1.05;;;;;;;11.73;69.32;99912.06;5024036;28;20053;-46
2023/10/12 08:31:20;;;;;;;6.05;1.33;;;;;;;11.75;70.30;99913.78;5022757;28;20041;-48
2023/10/12 08:33:48;;;;;;;5.13;1.75;;;;;;;11.76;69.68;99904.25;5027792;28;20076;-49
2023/10/12 08:38:55;;;;;;;3.83;1.83;;;;;;;11.78;69.15;99913.75;5040024;27;20398;-53
2023/10/12 08:44:05;;;;;;;4.72;2.17;;;;;;;12.22;68.86;99921.09;5085189;27;20769;-49
2023/10/12 08:46:56;;;;;;;5.97;1.35;;;;;;;12.01;69.60;99925.63;5047378;28;20055;-47
2023/10/12 08:49:34;;;;;;;5.13;0.73;;;;;;;11.98;70.05;99924.78;5072329;28;20452;-49
2023/10/12 08:52:07;;;;;;;2.75;0.65;;;;;;;11.95;69.38;99918.78;5060239;28;20534;-46
2023/10/12 08:54:37;;;;;;;5.28;1.20;;;;;;;11.97;69.21;99908.38;5062158;28;20454;-50
2023/10/12 08:57:17;;;;;;;4.10;0.80;;;;;;;11.99;69.96;99916.97;5060656;28;20049;-49
2023/10/12 09:00:19;;;;;;;3.95;0.93;;;;;;;12.06;69.27;99913.47;5063360;28;20241;-48
2023/10/12 09:02:39;;;;;;;2.28;0.57;;;;;;;12.10;69.05;99905.66;5058604;28;20045;-48
2023/10/12 09:05:11;;;;;;;6.55;1.02;;;;;;;12.14;69.44;99905.63;5046758;28;20052;-50
2023/10/12 09:07:45;;;;;;;3.80;0.70;;;;;;;12.17;69.64;99904.72;5059437;28;20064;-50
2023/10/12 09:13:01;;;;;;;6.70;0.90;;;;;;;12.31;69.47;99908.03;5058139;28;20111;-46
2023/10/12 09:15:30;;;;;;;5.78;1.27;;;;;;;12.39;68.30;99910.50;5053482;28;20080;-50
2023/10/12 09:17:57;;;;;;;4.78;1.00;;;;;;;12.46;68.73;99900.91;5059579;28;20072;-51
2023/10/12 09:20:28;;;;;;;3.15;0.80;;;;;;;12.55;68.53;99905.13;5041626;28;20052;-48
2023/10/12 09:23:03;;;;;;;4.43;1.75;;;;;;;12.61;68.56;99910.25;5041883;28;20139;-48
2023/10/12 09:28:38;;;;;;;4.07;1.40;;;;;;;12.71;67.91;99905.78;5034140;28;20041;-48
2023/10/12 09:31:09;;;;;;;8.20;0.80;;;;;;;12.75;68.42;99901.38;5010430;28;20053;-48
2023/10/12 09:36:24;;;;;;;6.28;1.70;;;;;;;12.91;67.47;99908.09;5029882;28;20046;-48
2023/10/12 09:38:55;;;;;;;4.13;0.90;;;;;;;12.96;68.48;99905.41;5016975;28;20054;-53
2023/10/12 09:41:28;;;;;;;7.35;1.15;;;;;;;13.00;67.64;99901.88;5023306;28;20080;-48
2023/10/12 09:43:57;;;;;;;2.65;0.73;;;;;;;13.02;67.89;99905.34;5038312;28;20049;-49
2023/10/12 09:46:27;;;;;;;6.78;1.13;;;;;;;13.10;68.00;99907.81;5039397;28;20045;-53
2023/10/12 09:49:02;;;;;;;10.27;1.13;;;;;;;13.18;68.17;99910.28;5014251;28;20058;-49
2023/10/12 09:51:36;;;;;;;5.82;1.63;;;;;;;13.26;67.50;99917.97;5036146;28;20045;-51
2023/10/12 09:54:15;;;;;;;4.03;0.70;;;;;;;13.23;67.45;99924.06;5029872;28;20050;-50
2023/10/12 09:56:47;;;;;;;4.82;1.33;;;;;;;13.21;67.57;99915.44;5006645;28;20053;-48
2023/10/12 09:59:18;;;;;;;4.22;0.82;;;;;;;13.23;67.03;99919.75;4985395;28;20050;-49
2023/10/12 10:09:41;;;;;;;5.78;2.55;;;;;;;13.49;67.77;99915.03;5019627;27;20413;-50
2023/10/12 10:12:08;;;;;;;5.25;2.17;;;;;;;13.47;66.72;99916.75;5002946;28;20513;-48
2023/10/12 10:14:36;;;;;;;3.85;1.17;;;;;;;13.51;67.26;99918.44;5004348;28;20521;-50
2023/10/12 10:17:09;;;;;;;7.35;2.08;;;;;;;13.54;67.38;99918.41;4998600;28;20058;-48
2023/10/12 10:19:36;;;;;;;6.72;2.83;;;;;;;13.56;67.27;99921.84;5000720;28;20502;-48
2023/10/12 10:22:11;;;;;;;6.78;2.30;;;;;;;13.54;66.97;99913.19;5002224;28;20046;-48
2023/10/12 10:27:18;;;;;;;5.50;1.05;;;;;;;13.52;66.63;99914.97;5007215;28;20407;-48
2023/10/12 10:29:53;;;;;;;9.52;1.20;;;;;;;13.55;67.14;99914.06;5000171;28;20054;-49
2023/10/12 10:32:29;;;;;;;4.15;0.68;;;;;;;13.57;66.61;99915.75;5010025;28;20050;-50
2023/10/12 10:34:59;;;;;;;6.28;0.77;;;;;;;13.59;66.83;99921.81;5005186;28;20843;-49
2023/10/12 10:37:39;;;;;;;7.38;0.93;;;;;;;13.62;67.39;99910.47;5004436;28;20483;-51
2023/10/12 10:40:09;;;;;;;4.95;0.93;;;;;;;13.69;67.31;99911.22;5024829;28;20053;-48
2023/10/12 10:42:37;;;;;;;4.30;1.42;;;;;;;13.71;66.19;99917.28;4999401;28;20042;-49
2023/10/12 10:45:12;;;;;;;3.35;0.80;;;;;;;13.71;66.90;99914.66;5004574;28;20100;-52
2023/10/12 10:47:49;;;;;;;8.02;1.15;;;;;;;13.72;66.52;99909.41;5002376;28;20050;-50
2023/10/12 10:50:43;;;;;;;4.00;0.60;;;;;;;13.78;67.50;99905.00;5006596;28;20042;-48
2023/10/12 10:53:15;;;;;;;1.98;0.60;;;;;;;13.86;66.92;99910.91;5011583;28;20124;-49
2023/10/12 10:55:42;;;;;;;4.40;1.23;;;;;;;13.90;66.73;99914.31;5001188;28;20456;-48
2023/10/12 10:58:14;;;;;;;3.45;0.85;;;;;;;13.96;66.19;99909.00;5001178;28;20058;-49
2023/10/12 11:00:45;;;;;;;3.53;0.85;;;;;;;14.03;66.76;99915.81;5000222;28;20055;-48
2023/10/12 11:03:16;;;;;;;2.50;0.90;;;;;;;14.10;66.21;99917.41;4998772;28;20058;-47
2023/10/12 11:05:46;;;;;;;5.97;0.93;;;;;;;14.16;66.50;99915.56;4992668;28;20038;-46
2023/10/12 11:08:26;;;;;;;2.30;0.70;;;;;;;14.21;66.58;99908.50;4990124;28;20058;-48
2023/10/12 11:11:25;;;;;;;5.78;1.08;;;;;;;14.29;66.41;99910.97;5002351;28;20125;-50
2023/10/12 11:13:44;;;;;;;6.68;1.98;;;;;;;14.34;67.14;99909.97;4987580;28;20557;-49
2023/10/12 11:18:59;;;;;;;3.17;0.90;;;;;;;14.57;66.43;99895.59;4997013;28;20054;-49
2023/10/12 11:21:27;;;;;;;5.80;1.30;;;;;;;14.65;66.13;99888.47;4998842;28;20054;-50
2023/10/12 11:24:00;;;;;;;4.70;0.63;;;;;;;14.75;65.92;99891.72;5002298;28;20050;-49
2023/10/12 11:26:28;;;;;;;3.28;0.88;;;;;;;14.84;66.65;99897.66;4996944;28;20146;-51
2023/10/12 11:29:04;;;;;;;7.40;1.60;;;;;;;14.87;65.67;99895.84;5000429;28;20578;-51
2023/10/12 11:31:31;;;;;;;1.88;0.82;;;;;;;14.95;66.15;99900.00;5000883;28;20392;-48
2023/10/12 11:34:06;;;;;;;5.28;0.90;;;;;;;14.99;65.78;99891.22;5001204;28;20487;-48
2023/10/12 11:36:35;;;;;;;5.32;1.45;;;;;;;15.01;65.74;99894.66;4997125;28;20042;-47
2023/10/12 11:39:10;;;;;;;4.43;0.70;;;;;;;15.05;65.55;99883.25;5017651;28;20051;-47
2023/10/12 11:41:37;;;;;;;3.47;1.33;;;;;;;15.07;66.07;99883.22;5025856;28;20049;-48
2023/10/12 11:44:07;;;;;;;5.18;0.70;;;;;;;15.07;65.56;99894.53;5025374;28;20057;-52
2023/10/12 11:46:43;;;;;;;4.88;0.80;;;;;;;15.10;65.50;99893.59;5008199;28;20042;-50
2023/10/12 11:49:11;;;;;;;2.35;0.90;;;;;;;15.13;65.66;99894.34;5030577;28;20084;-50
2023/10/12 11:51:42;;;;;;;4.50;0.80;;;;;;;15.15;65.40;99895.19;5024589;28;20469;-49
2023/10/12 11:54:19;;;;;;;5.88;0.95;;;;;;;15.19;65.26;99898.56;5024849;28;20107;-49
2023/10/12 11:56:49;;;;;;;5.93;0.77;;;;;;;15.24;65.53;99896.72;5021720;28;20132;-51
2023/10/12 11:59:25;;;;;;;11.35;2.08;;;;;;;15.27;65.49;99901.00;5017456;28;20046;-48
2023/10/12 12:01:55;;;;;;;3.58;0.95;;;;;;;15.29;65.38;99888.75;5019077;28;20053;-48
2023/10/12 12:07:27;;;;;;;2.53;0.88;;;;;;;15.36;65.66;99882.50;4995257;28;20045;-49
2023/10/12 12:10:01;;;;;;;7.28;1.20;;;;;;;15.42;65.54;99884.97;5020180;28;20066;-52
2023/10/12 12:12:28;;;;;;;2.92;1.00;;;;;;;15.45;65.17;99883.16;5017061;28;20108;-46
2023/10/12 12:14:54;;;;;;;6.38;1.30;;;;;;;15.38;65.33;99878.13;5021841;28;20046;-49
2023/10/12 12:17:25;;;;;;;4.68;1.63;;;;;;;15.37;65.26;99881.59;5016115;28;20550;-49
2023/10/12 12:19:53;;;;;;;10.68;1.15;;;;;;;15.30;65.40;99877.44;5018865;28;20529;-51
2023/10/12 12:22:23;;;;;;;3.10;1.02;;;;;;;15.27;65.63;99874.91;5016195;28;20052;-51
2023/10/12 12:24:50;;;;;;;6.00;1.58;;;;;;;15.29;65.65;99883.53;5013352;28;20713;-46
2023/10/12 12:30:08;;;;;;;4.15;1.02;;;;;;;15.34;65.25;99881.69;5012131;28;20054;-49
2023/10/12 12:32:39;;;;;;;;;;;;;;;15.26;65.46;99883.63;5024996;28;20049;-52
2023/10/12 12:35:06;;;;;;;5.88;1.27;;;;;;;15.38;65.80;99880.72;5019688;28;20016;-49
2023/10/12 12:37:37;;;;;;;4.72;0.80;;;;;;;15.42;65.24;99874.53;5020125;28;20046;-50
2023/10/12 12:42:51;;;;;;;6.18;1.10;;;;;;;15.42;65.41;99864.09;5002974;28;20057;-52
2023/10/12 12:45:18;;;;;;;3.20;1.05;;;;;;;15.40;65.58;99863.25;5026826;28;20049;-49
2023/10/12 12:47:45;;;;;;;7.50;1.20;;;;;;;15.40;65.68;99865.88;5027047;28;20049;-47
2023/10/12 12:50:11;;;;;;;5.78;1.25;;;;;;;15.39;65.30;99858.94;5021739;28;20057;-52
2023/10/12 12:52:39;;;;;;;3.95;0.73;;;;;;;15.42;66.11;99853.66;5018149;28;20057;-50
2023/10/12 12:55:10;;;;;;;3.47;0.70;;;;;;;15.45;65.33;99857.06;5024382;28;20054;-50
2023/10/12 12:57:38;;;;;;;6.15;1.00;;;;;;;15.49;65.60;99849.13;5021432;28;20125;-51
2023/10/12 13:00:08;;;;;;;3.92;1.02;;;;;;;15.54;65.93;99856.84;5025197;28;20103;-46
2023/10/12 13:02:36;;;;;;;;;;;;;;;15.46;66.02;99848.31;5029120;28;20083;-48
2023/10/12 13:05:05;;;;;;;3.13;0.90;;;;;;;15.58;66.13;99850.63;5027376;28;20008;-53
2023/10/12 13:07:32;;;;;;;5.85;1.25;;;;;;;15.60;65.73;99850.59;5026510;28;20045;-50
2023/10/12 13:09:59;;;;;;;5.90;1.08;;;;;;;15.60;65.10;99851.44;5029331;28;20052;-50
2023/10/12 13:12:31;;;;;;;6.28;0.90;;;;;;;15.60;65.97;99848.81;5026381;28;20128;-49
2023/10/12 13:15:00;;;;;;;5.80;1.67;;;;;;;15.59;65.75;99849.72;5007696;28;20046;-47
2023/10/12 13:17:31;;;;;;;5.43;1.13;;;;;;;15.60;65.58;99835.78;5018150;28;20054;-51
2023/10/12 13:19:58;;;;;;;8.68;1.02;;;;;;;15.54;65.65;99841.19;5008688;28;20144;-49
2023/10/12 13:22:26;;;;;;;5.25;1.60;;;;;;;15.55;65.62;99846.34;5018118;28;20156;-50
2023/10/12 13:24:56;;;;;;;8.70;1.20;;;;;;;15.58;65.97;99837.59;5016366;28;20077;-56
2023/10/12 13:27:27;;;;;;;7.43;1.13;;;;;;;15.64;66.31;99832.19;5025767;28;20073;-50
2023/10/12 13:30:01;;;;;;;6.75;1.20;;;;;;;15.71;66.05;99832.03;5028315;28;20064;-49
2023/10/12 13:32:30;;;;;;;11.18;1.70;;;;;;;15.68;65.81;99833.81;5026336;28;20050;-53
2023/10/12 13:34:58;;;;;;;7.32;1.83;;;;;;;15.72;65.80;99834.59;5027262;28;20084;-50
2023/10/12 13:37:30;;;;;;;4.85;1.52;;;;;;;15.78;65.97;99828.34;5023293;28;20057;-48
2023/10/12 13:39:58;;;;;;;5.88;1.52;;;;;;;15.76;65.75;99831.00;5024014;28;20059;-47
2023/10/12 13:42:28;;;;;;;4.80;1.08;;;;;;;15.75;65.93;99833.66;5024391;28;20049;-50
2023/10/12 13:44:56;;;;;;;7.43;1.30;;;;;;;15.76;66.15;99830.13;5022108;28;20167;-46
2023/10/12 13:47:25;;;;;;;4.85;1.17;;;;;;;15.76;65.62;99837.97;5027888;28;20505;-49
2023/10/12 13:49:54;;;;;;;5.00;1.25;;;;;;;15.78;65.82;99833.56;5027586;28;20057;-50
2023/10/12 13:52:20;;;;;;;5.68;1.23;;;;;;;15.85;66.24;99829.03;5017636;28;20513;-49
2023/10/12 13:54:47;;;;;;;3.67;1.00;;;;;;;15.89;66.00;99826.28;5027110;28;20080;-47
2023/10/12 13:57:15;;;;;;;5.93;1.55;;;;;;;15.93;66.58;99827.91;5020796;28;20383;-52
2023/10/12 13:59:45;;;;;;;4.18;1.02;;;;;;;15.97;65.86;99823.47;5028875;28;20048;-51
2023/10/12 14:02:13;;;;;;;8.50;1.88;;;;;;;15.94;65.82;99824.38;5027264;28;20060;-47
2023/10/12 14:04:40;;;;;;;6.07;1.05;;;;;;;15.97;65.51;99828.69;5027318;28;20049;-52
2023/10/12 14:07:07;;;;;;;8.48;1.92;;;;;;;16.01;65.83;99830.31;5024798;28;20045;-49
2023/10/12 14:09:36;;;;;;;6.00;2.17;;;;;;;16.05;65.96;99833.72;5025917;28;20128;-47
2023/10/12 14:12:05;;;;;;;2.65;0.80;;;;;;;16.04;65.57;99834.59;5026125;28;20400;-51
2023/10/12 14:14:33;;;;;;;3.92;1.08;;;;;;;16.04;66.01;99825.00;5025624;28;20056;-50
2023/10/12 14:16:59;;;;;;;5.03;1.27;;;;;;;16.05;66.42;99823.28;5025963;28;20049;-47